Time;durP1;ratioP1;P1;durP2;ratioP2;P2;SDS_P1;SDS_P2;PMS_P1;PMS_P2;Temp;Humidity;BMP_temperature;BMP_pressure;BME280_temperature;BME280_humidity;BME280_pressure;Samples;Min_cycle;Max_cycle;Signal;HPM_P1;HPM_P2
2021/01/29 00:01:16;;;;;;;28.77;15.05;;;;;;;;;;5095114;28;20039;-65
2021/01/29 00:04:01;;;;;;;33.10;17.23;;;;;;;;;;5095026;28;20048;-64
2021/01/29 00:06:47;;;;;;;31.30;17.35;;;;;;;;;;5095044;28;20059;-64
2021/01/29 00:09:32;;;;;;;33.78;17.65;;;;;;;;;;5114803;28;20051;-64
2021/01/29 00:12:18;;;;;;;33.30;17.30;;;;;;;;;;5109875;28;20046;-64
2021/01/29 00:15:06;;;;;;;38.20;19.52;;;;;;;;;;5102599;28;20040;-64
2021/01/29 00:17:51;;;;;;;37.97;19.13;;;;;;;;;;5114377;28;20184;-64
2021/01/29 00:20:37;;;;;;;35.10;19.33;;;;;;;;;;5111724;28;20098;-65
2021/01/29 00:23:22;;;;;;;34.47;18.80;;;;;;;;;;5094840;28;20044;-64
2021/01/29 00:26:07;;;;;;;37.58;19.85;;;;;;;;;;5094516;28;20169;-64
2021/01/29 00:28:52;;;;;;;37.72;19.77;;;;;;;;;;5094652;28;20044;-65
2021/01/29 00:31:38;;;;;;;40.17;20.48;;;;;;;;;;5094599;28;20039;-65
2021/01/29 00:34:23;;;;;;;38.88;20.08;;;;;;;;;;5108569;28;20493;-65
2021/01/29 00:37:08;;;;;;;46.20;22.88;;;;;;;;;;5114058;28;20048;-65
2021/01/29 00:39:53;;;;;;;44.75;21.70;;;;;;;;;;5104942;28;20040;-65
2021/01/29 00:42:39;;;;;;;39.33;20.08;;;;;;;;;;5106896;28;20077;-65
2021/01/29 00:45:25;;;;;;;45.00;23.83;;;;;;;;;;5108174;28;20044;-65
2021/01/29 00:48:10;;;;;;;42.13;23.25;;;;;;;;;;5112021;28;20097;-65
2021/01/29 00:50:56;;;;;;;40.33;20.92;;;;;;;;;;5114540;28;20083;-65
2021/01/29 00:53:40;;;;;;;44.35;23.05;;;;;;;;;;5086828;28;20494;-65
2021/01/29 00:56:34;;;;;;;49.05;23.83;;;;;;;;;;5093182;28;20052;-65
2021/01/29 00:59:24;;;;;;;42.88;23.05;;;;;;;;;;5093457;28;20048;-65
2021/01/29 01:02:22;;;;;;;44.25;23.13;;;;;;;;;;5092825;28;20498;-65
2021/01/29 01:05:07;;;;;;;49.53;25.02;;;;;;;;;;5095169;28;20094;-65
2021/01/29 01:07:52;;;;;;;41.83;22.55;;;;;;;;;;5093807;28;20508;-66
2021/01/29 01:11:09;;;;;;;49.30;24.20;;;;;;;;;;5099626;28;20032;-65
2021/01/29 01:14:06;;;;;;;45.40;23.65;;;;;;;;;;5113134;28;20040;-66
2021/01/29 01:17:12;;;;;;;54.83;24.55;;;;;;;;;;5111920;28;20047;-65
2021/01/29 01:20:16;;;;;;;53.35;25.52;;;;;;;;;;5092870;28;20042;-65
2021/01/29 01:23:02;;;;;;;54.17;25.60;;;;;;;;;;5093574;28;20052;-65
2021/01/29 01:25:58;;;;;;;51.67;25.30;;;;;;;;;;5110775;28;20036;-66
2021/01/29 01:29:03;;;;;;;49.45;25.15;;;;;;;;;;5113885;28;20048;-66
2021/01/29 01:31:49;;;;;;;54.35;26.17;;;;;;;;;;5103861;28;20060;-65
2021/01/29 01:35:00;;;;;;;52.88;23.25;;;;;;;;;;5093312;28;20040;-65
2021/01/29 01:37:49;;;;;;;57.85;26.40;;;;;;;;;;5092953;28;20170;-66
2021/01/29 01:40:42;;;;;;;51.88;25.70;;;;;;;;;;5099550;28;20048;-66
2021/01/29 01:43:32;;;;;;;51.22;23.67;;;;;;;;;;5112621;28;20043;-66
2021/01/29 01:46:36;;;;;;;48.88;24.13;;;;;;;;;;5099254;28;20058;-66
2021/01/29 01:49:44;;;;;;;50.28;23.83;;;;;;;;;;5084255;28;20056;-64
2021/01/29 01:52:51;;;;;;;47.97;23.48;;;;;;;;;;5086838;28;20517;-66
2021/01/29 01:55:51;;;;;;;53.65;23.98;;;;;;;;;;5130931;23;20131;-65
2021/01/29 01:58:58;;;;;;;51.00;23.33;;;;;;;;;;5100750;28;20545;-64
2021/01/29 02:01:53;;;;;;;40.95;21.35;;;;;;;;;;5096202;28;20066;-64
2021/01/29 02:05:04;;;;;;;55.72;25.08;;;;;;;;;;5083566;28;20049;-64
2021/01/29 02:08:07;;;;;;;48.15;23.95;;;;;;;;;;5059728;28;20051;-64
2021/01/29 02:11:27;;;;;;;47.03;22.98;;;;;;;;;;5072236;28;20055;-64
2021/01/29 02:14:34;;;;;;;44.08;21.67;;;;;;;;;;5071351;28;20561;-65
2021/01/29 02:17:48;;;;;;;49.90;24.55;;;;;;;;;;5072073;28;20041;-64
2021/01/29 02:21:05;;;;;;;48.28;22.95;;;;;;;;;;5059808;28;20049;-64
2021/01/29 02:24:21;;;;;;;52.40;23.63;;;;;;;;;;5087196;28;20119;-64
2021/01/29 02:27:30;;;;;;;46.25;21.63;;;;;;;;;;5091384;28;20497;-64
2021/01/29 02:30:25;;;;;;;54.53;24.85;;;;;;;;;;5091442;28;20083;-64
2021/01/29 02:33:30;;;;;;;48.45;24.15;;;;;;;;;;5072032;28;20090;-64
2021/01/29 02:36:34;;;;;;;49.65;24.48;;;;;;;;;;5071911;28;20052;-64
2021/01/29 02:39:26;;;;;;;51.47;24.60;;;;;;;;;;5070924;28;20048;-64
2021/01/29 02:42:20;;;;;;;48.33;24.63;;;;;;;;;;5056948;28;20056;-64
2021/01/29 02:45:17;;;;;;;49.85;24.83;;;;;;;;;;5090375;28;20555;-64
2021/01/29 02:48:41;;;;;;;56.58;26.92;;;;;;;;;;5092007;28;20048;-65
2021/01/29 02:52:01;;;;;;;45.75;21.63;;;;;;;;;;5092058;28;20082;-64
2021/01/29 02:55:23;;;;;;;54.63;25.23;;;;;;;;;;5074801;28;20041;-64
2021/01/29 02:58:23;;;;;;;52.10;25.15;;;;;;;;;;5071856;28;20560;-64
2021/01/29 03:01:37;;;;;;;54.50;25.80;;;;;;;;;;5070988;28;20098;-64
2021/01/29 03:04:38;;;;;;;64.13;29.15;;;;;;;;;;5066308;28;20047;-64
2021/01/29 03:07:29;;;;;;;62.75;27.77;;;;;;;;;;5090895;28;20044;-64
2021/01/29 03:10:43;;;;;;;58.58;26.88;;;;;;;;;;5091088;28;20044;-64
2021/01/29 03:13:47;;;;;;;;;;;;;;;;;;5091460;28;20048;-64
2021/01/29 03:16:52;;;;;;;63.30;28.55;;;;;;;;;;5071597;28;20015;-64
2021/01/29 03:20:01;;;;;;;59.78;27.58;;;;;;;;;;5074798;28;20094;-63
2021/01/29 03:23:07;;;;;;;68.15;30.17;;;;;;;;;;5074767;28;20446;-65
2021/01/29 03:26:22;;;;;;;68.10;27.92;;;;;;;;;;5054196;28;20045;-64
2021/01/29 03:29:28;;;;;;;62.72;25.95;;;;;;;;;;5075571;28;20055;-64
2021/01/29 03:32:32;;;;;;;67.47;28.98;;;;;;;;;;5074481;28;20044;-64
2021/01/29 03:35:41;;;;;;;64.80;29.17;;;;;;;;;;5046977;28;20052;-65
2021/01/29 03:38:46;;;;;;;65.70;28.25;;;;;;;;;;5075178;28;20049;-64
2021/01/29 03:42:14;;;;;;;63.08;28.65;;;;;;;;;;5074295;28;20119;-64
2021/01/29 03:45:21;;;;;;;72.13;31.15;;;;;;;;;;5076613;28;20047;-63
2021/01/29 03:48:32;;;;;;;65.85;29.98;;;;;;;;;;5095509;28;20055;-64
2021/01/29 03:51:44;;;;;;;67.32;30.17;;;;;;;;;;5094477;28;20044;-64
2021/01/29 03:54:59;;;;;;;65.32;28.08;;;;;;;;;;5071474;28;20044;-65
2021/01/29 03:58:11;;;;;;;65.07;28.25;;;;;;;;;;5074946;28;20068;-65
2021/01/29 04:01:21;;;;;;;57.88;26.75;;;;;;;;;;5073939;28;20494;-65
2021/01/29 04:04:29;;;;;;;60.65;27.33;;;;;;;;;;5074030;28;20131;-64
2021/01/29 04:07:42;;;;;;;65.93;29.70;;;;;;;;;;5074296;28;20076;-65
2021/01/29 04:10:47;;;;;;;66.65;29.05;;;;;;;;;;5079899;28;20036;-64
2021/01/29 04:13:56;;;;;;;57.05;26.75;;;;;;;;;;5073848;28;20049;-63
2021/01/29 04:16:45;;;;;;;67.82;28.85;;;;;;;;;;5086613;28;20036;-64
2021/01/29 04:19:30;;;;;;;59.30;28.05;;;;;;;;;;5093856;28;20048;-64
2021/01/29 04:22:20;;;;;;;65.00;27.60;;;;;;;;;;5093769;28;20044;-65
2021/01/29 04:25:15;;;;;;;57.97;27.23;;;;;;;;;;5093651;28;20478;-64
2021/01/29 04:28:02;;;;;;;63.30;28.38;;;;;;;;;;5090813;28;20048;-64
2021/01/29 04:30:48;;;;;;;55.63;26.80;;;;;;;;;;5093422;28;20054;-64
2021/01/29 04:33:35;;;;;;;55.35;26.42;;;;;;;;;;5093658;28;20044;-64
2021/01/29 04:36:21;;;;;;;55.58;25.67;;;;;;;;;;5093600;28;20051;-64
2021/01/29 04:39:07;;;;;;;58.58;26.25;;;;;;;;;;5090980;28;20044;-64
2021/01/29 04:42:05;;;;;;;59.20;26.02;;;;;;;;;;5093367;28;20040;-64
2021/01/29 04:44:53;;;;;;;52.55;25.67;;;;;;;;;;5093245;28;20044;-64
2021/01/29 04:47:38;;;;;;;58.72;27.25;;;;;;;;;;5091012;28;20040;-64
2021/01/29 04:50:29;;;;;;;59.35;26.08;;;;;;;;;;5079034;28;20055;-64
2021/01/29 04:53:30;;;;;;;46.60;24.10;;;;;;;;;;5093227;28;20044;-64
2021/01/29 04:56:21;;;;;;;61.35;26.83;;;;;;;;;;5094674;28;20048;-65
2021/01/29 04:59:33;;;;;;;54.50;24.85;;;;;;;;;;5095361;28;20056;-65
2021/01/29 05:02:37;;;;;;;54.65;24.48;;;;;;;;;;5094812;28;20387;-65
2021/01/29 05:06:10;;;;;;;49.10;22.05;;;;;;;;;;5088215;28;20122;-64
2021/01/29 05:09:38;;;;;;;37.85;20.02;;;;;;;;;;5082004;28;20048;-64
2021/01/29 05:12:39;;;;;;;38.22;19.63;;;;;;;;;;5072733;28;20045;-65
2021/01/29 05:15:25;;;;;;;32.10;17.45;;;;;;;;;;5073553;28;20040;-64
2021/01/29 05:18:22;;;;;;;31.60;16.58;;;;;;;;;;5072142;28;20068;-64
2021/01/29 05:21:12;;;;;;;31.33;17.15;;;;;;;;;;5073522;28;20123;-65
2021/01/29 05:24:16;;;;;;;27.92;15.20;;;;;;;;;;5072441;28;20442;-64
2021/01/29 05:27:20;;;;;;;28.45;15.30;;;;;;;;;;5072965;28;20387;-65
2021/01/29 05:30:12;;;;;;;32.33;17.10;;;;;;;;;;5084805;28;20051;-65
2021/01/29 05:33:03;;;;;;;26.33;14.75;;;;;;;;;;5093288;28;20044;-65
2021/01/29 05:35:48;;;;;;;27.58;15.75;;;;;;;;;;5093305;28;20413;-64
2021/01/29 05:38:52;;;;;;;26.88;15.38;;;;;;;;;;5093370;28;20044;-64
2021/01/29 05:41:46;;;;;;;25.77;13.85;;;;;;;;;;5072048;28;20045;-64
2021/01/29 05:44:50;;;;;;;29.25;15.63;;;;;;;;;;5072819;28;20043;-64
2021/01/29 05:47:35;;;;;;;;;;;;;;;;;;5073156;28;20114;-65
2021/01/29 05:50:39;;;;;;;22.77;13.40;;;;;;;;;;5080404;28;20022;-64
2021/01/29 05:53:24;;;;;;;22.17;13.27;;;;;;;;;;5093053;28;20051;-64
2021/01/29 05:56:15;;;;;;;22.05;13.50;;;;;;;;;;5092410;28;20164;-64
2021/01/29 05:59:21;;;;;;;24.05;13.50;;;;;;;;;;5092008;28;20040;-65
2021/01/29 06:02:21;;;;;;;21.35;12.88;;;;;;;;;;5090241;28;20044;-64
2021/01/29 06:05:10;;;;;;;23.60;13.55;;;;;;;;;;5091785;28;20044;-65
2021/01/29 06:08:07;;;;;;;24.23;13.77;;;;;;;;;;5091651;28;20044;-65
2021/01/29 06:11:05;;;;;;;23.75;14.00;;;;;;;;;;5085777;28;20068;-64
2021/01/29 06:13:53;;;;;;;22.23;14.25;;;;;;;;;;5071493;28;20063;-64
2021/01/29 06:16:41;;;;;;;21.40;12.20;;;;;;;;;;5071575;28;20494;-65
2021/01/29 06:19:35;;;;;;;24.65;14.32;;;;;;;;;;5088233;28;20047;-64
2021/01/29 06:22:39;;;;;;;24.35;13.68;;;;;;;;;;5077151;28;20044;-64
2021/01/29 06:25:30;;;;;;;20.95;12.68;;;;;;;;;;5083839;28;20036;-64
2021/01/29 06:28:34;;;;;;;20.08;12.30;;;;;;;;;;5071138;28;20630;-64
2021/01/29 06:31:25;;;;;;;16.65;10.63;;;;;;;;;;5072061;28;20554;-64
2021/01/29 06:34:29;;;;;;;17.83;11.85;;;;;;;;;;5073232;28;20592;-63
2021/01/29 06:37:21;;;;;;;18.27;11.10;;;;;;;;;;5077377;28;20048;-63
2021/01/29 06:40:06;;;;;;;22.33;12.20;;;;;;;;;;5072200;28;20047;-64
2021/01/29 06:43:03;;;;;;;21.27;12.50;;;;;;;;;;5071932;28;20052;-63
2021/01/29 06:46:04;;;;;;;20.52;12.52;;;;;;;;;;5073259;28;20079;-63
2021/01/29 06:48:57;;;;;;;24.20;13.88;;;;;;;;;;5071961;28;20127;-64
2021/01/29 06:51:57;;;;;;;19.52;12.15;;;;;;;;;;5071672;28;20052;-65
2021/01/29 06:54:54;;;;;;;19.40;12.35;;;;;;;;;;5071710;28;20051;-65
2021/01/29 06:58:04;;;;;;;20.05;12.48;;;;;;;;;;5082295;28;20418;-64
2021/01/29 07:01:08;;;;;;;19.13;12.65;;;;;;;;;;5081354;28;20127;-64
2021/01/29 07:04:14;;;;;;;20.95;13.75;;;;;;;;;;5081919;28;20045;-64
2021/01/29 07:07:17;;;;;;;23.35;14.18;;;;;;;;;;5080485;28;20052;-64
2021/01/29 07:10:07;;;;;;;21.10;13.63;;;;;;;;;;5071693;28;20524;-64
2021/01/29 07:12:59;;;;;;;22.00;14.52;;;;;;;;;;5070797;28;20181;-64
2021/01/29 07:15:50;;;;;;;23.75;14.35;;;;;;;;;;5072838;28;20522;-64
2021/01/29 07:18:36;;;;;;;19.92;12.85;;;;;;;;;;5070631;28;20047;-63
2021/01/29 07:21:23;;;;;;;18.35;12.73;;;;;;;;;;5072918;28;20049;-64
2021/01/29 07:24:24;;;;;;;20.98;13.15;;;;;;;;;;5070552;28;20040;-63
2021/01/29 07:27:14;;;;;;;18.13;12.23;;;;;;;;;;5071458;28;20127;-63
2021/01/29 07:30:05;;;;;;;21.05;12.82;;;;;;;;;;5072868;28;20056;-64
2021/01/29 07:32:51;;;;;;;18.83;11.88;;;;;;;;;;5070528;28;20124;-64
2021/01/29 07:35:38;;;;;;;19.88;13.32;;;;;;;;;;5071829;28;20045;-66
2021/01/29 07:38:35;;;;;;;22.02;13.45;;;;;;;;;;5071438;28;20105;-67
2021/01/29 07:41:27;;;;;;;20.25;12.55;;;;;;;;;;5072528;28;20050;-66
2021/01/29 07:44:21;;;;;;;19.15;12.55;;;;;;;;;;5071640;28;20045;-66
2021/01/29 07:47:11;;;;;;;21.83;13.07;;;;;;;;;;5071405;28;20052;-65
2021/01/29 07:50:16;;;;;;;20.75;12.23;;;;;;;;;;5071537;28;20049;-65
2021/01/29 07:53:02;;;;;;;22.05;12.68;;;;;;;;;;5071296;28;20461;-65
2021/01/29 07:56:06;;;;;;;19.50;12.32;;;;;;;;;;5115964;22;20040;-64
2021/01/29 07:59:04;;;;;;;18.38;11.75;;;;;;;;;;5090533;28;20119;-64
2021/01/29 08:01:51;;;;;;;22.40;12.98;;;;;;;;;;5089835;28;20064;-64
2021/01/29 08:04:36;;;;;;;19.13;12.13;;;;;;;;;;5093976;28;20044;-64
2021/01/29 08:07:27;;;;;;;19.40;12.20;;;;;;;;;;5073271;28;20044;-65
2021/01/29 08:10:26;;;;;;;18.40;11.63;;;;;;;;;;5072216;28;20473;-65
2021/01/29 08:13:30;;;;;;;19.15;12.13;;;;;;;;;;5073626;28;20162;-64
2021/01/29 08:16:32;;;;;;;19.60;10.02;;;;;;;;;;5074519;28;20044;-64
2021/01/29 08:19:21;;;;;;;19.77;12.10;;;;;;;;;;5058752;28;20684;-64
2021/01/29 08:22:12;;;;;;;18.23;11.48;;;;;;;;;;5072452;28;20293;-64
2021/01/29 08:25:03;;;;;;;20.13;12.38;;;;;;;;;;5072882;28;20044;-64
2021/01/29 08:28:08;;;;;;;15.48;10.70;;;;;;;;;;5073501;28;20044;-64
2021/01/29 08:31:25;;;;;;;15.82;10.57;;;;;;;;;;5072811;28;20044;-64
2021/01/29 08:34:42;;;;;;;15.65;9.90;;;;;;;;;;5063526;28;20045;-64
2021/01/29 08:37:37;;;;;;;16.42;10.02;;;;;;;;;;5059160;28;20095;-65
2021/01/29 08:40:25;;;;;;;18.55;11.18;;;;;;;;;;5073251;28;20441;-65
2021/01/29 08:43:25;;;;;;;16.85;10.40;;;;;;;;;;5074286;28;20041;-65
2021/01/29 08:46:19;;;;;;;15.73;9.88;;;;;;;;;;5060306;28;20138;-64
2021/01/29 08:49:04;;;;;;;14.75;10.30;;;;;;;;;;5061912;28;20048;-65
2021/01/29 08:52:06;;;;;;;18.58;10.30;;;;;;;;;;5062426;28;20128;-65
2021/01/29 08:54:51;;;;;;;15.63;9.82;;;;;;;;;;5063062;28;20047;-64
2021/01/29 08:57:39;;;;;;;14.65;10.18;;;;;;;;;;5063183;28;20556;-65
2021/01/29 09:00:29;;;;;;;16.73;10.50;;;;;;;;;;5064418;28;20408;-65
2021/01/29 09:03:14;;;;;;;21.10;11.80;;;;;;;;;;5066472;28;20047;-65
2021/01/29 09:06:01;;;;;;;22.90;12.05;;;;;;;;;;5068648;28;20045;-62
2021/01/29 09:08:46;;;;;;;17.70;9.68;;;;;;;;;;5072366;28;20075;-64
2021/01/29 09:11:36;;;;;;;17.70;10.80;;;;;;;;;;5066558;28;20047;-64
2021/01/29 09:14:37;;;;;;;17.00;10.52;;;;;;;;;;5056486;28;20056;-64
2021/01/29 09:17:42;;;;;;;16.23;10.55;;;;;;;;;;5063460;28;20047;-64
2021/01/29 09:20:28;;;;;;;17.30;10.60;;;;;;;;;;5067778;28;20051;-64
2021/01/29 09:23:24;;;;;;;17.75;10.82;;;;;;;;;;5062461;28;20051;-64
2021/01/29 09:26:16;;;;;;;17.50;9.95;;;;;;;;;;5067262;28;20059;-64
2021/01/29 09:29:21;;;;;;;19.83;10.35;;;;;;;;;;5066153;28;20497;-63
2021/01/29 09:32:07;;;;;;;17.40;10.73;;;;;;;;;;5060501;28;20037;-63
2021/01/29 09:34:52;;;;;;;19.20;11.25;;;;;;;;;;5055973;28;20045;-63
2021/01/29 09:37:43;;;;;;;19.13;11.05;;;;;;;;;;5077101;28;20041;-65
2021/01/29 09:40:33;;;;;;;20.63;10.88;;;;;;;;;;5085097;28;20115;-63
2021/01/29 09:43:21;;;;;;;17.60;10.73;;;;;;;;;;5071862;28;20103;-65
2021/01/29 09:46:06;;;;;;;16.40;10.52;;;;;;;;;;5065842;28;20067;-63
2021/01/29 09:48:55;;;;;;;13.98;9.13;;;;;;;;;;5070384;28;20040;-63
2021/01/29 09:51:43;;;;;;;18.33;10.52;;;;;;;;;;5069409;28;20036;-64
2021/01/29 09:54:52;;;;;;;16.52;9.93;;;;;;;;;;5068556;28;20056;-66
2021/01/29 09:57:49;;;;;;;16.92;10.88;;;;;;;;;;5061250;28;20426;-63
2021/01/29 10:00:35;;;;;;;18.10;10.77;;;;;;;;;;5068711;28;20040;-63
2021/01/29 10:03:25;;;;;;;16.80;10.13;;;;;;;;;;5065724;28;20045;-63
2021/01/29 10:06:11;;;;;;;16.70;10.07;;;;;;;;;;5065446;28;20045;-63
2021/01/29 10:08:57;;;;;;;10.10;7.95;;;;;;;;;;5080505;28;20045;-63
2021/01/29 10:11:47;;;;;;;17.42;9.93;;;;;;;;;;5070206;28;20036;-65
2021/01/29 10:14:36;;;;;;;13.68;9.25;;;;;;;;;;5051480;28;20045;-63
2021/01/29 10:17:24;;;;;;;16.65;10.38;;;;;;;;;;5053476;28;20052;-63
2021/01/29 10:20:10;;;;;;;15.20;9.70;;;;;;;;;;5057695;28;20041;-64
2021/01/29 10:23:15;;;;;;;16.05;9.27;;;;;;;;;;5068498;28;20038;-64
2021/01/29 10:26:18;;;;;;;17.63;10.30;;;;;;;;;;5068407;28;20045;-63
2021/01/29 10:29:23;;;;;;;18.27;10.73;;;;;;;;;;5067116;28;20387;-65
2021/01/29 10:32:11;;;;;;;18.70;10.15;;;;;;;;;;5049333;28;20039;-65
2021/01/29 10:35:06;;;;;;;16.02;10.55;;;;;;;;;;5064771;28;20086;-64
2021/01/29 10:38:00;;;;;;;17.30;10.55;;;;;;;;;;5070791;28;20127;-65
2021/01/29 10:41:05;;;;;;;16.65;9.73;;;;;;;;;;5069107;28;20041;-65
2021/01/29 10:43:53;;;;;;;21.90;11.85;;;;;;;;;;5056313;28;20048;-65
2021/01/29 10:46:46;;;;;;;19.20;11.20;;;;;;;;;;5071104;28;20457;-65
2021/01/29 10:49:31;;;;;;;21.27;12.38;;;;;;;;;;5050810;28;20040;-65
2021/01/29 10:52:37;;;;;;;25.05;13.07;;;;;;;;;;5051586;28;20073;-65
2021/01/29 10:55:29;;;;;;;26.50;14.18;;;;;;;;;;5066434;28;20056;-64
2021/01/29 10:58:22;;;;;;;26.55;13.90;;;;;;;;;;5065726;28;20053;-65
2021/01/29 11:01:40;;;;;;;33.72;15.55;;;;;;;;;;5054468;28;20048;-64
2021/01/29 11:04:26;;;;;;;27.58;13.63;;;;;;;;;;5042301;28;20052;-63
2021/01/29 11:07:25;;;;;;;38.25;15.73;;;;;;;;;;5064541;28;20514;-64
2021/01/29 11:10:22;;;;;;;30.50;14.20;;;;;;;;;;5050732;28;20458;-65
2021/01/29 11:13:10;;;;;;;30.65;14.75;;;;;;;;;;5051589;28;20052;-65
2021/01/29 11:15:56;;;;;;;32.30;15.35;;;;;;;;;;5065260;28;20143;-65
2021/01/29 11:18:42;;;;;;;34.50;14.80;;;;;;;;;;5069959;28;20094;-65
2021/01/29 11:21:36;;;;;;;39.22;14.88;;;;;;;;;;5070059;28;20040;-65
2021/01/29 11:24:27;;;;;;;40.75;14.65;;;;;;;;;;5070638;28;20461;-65
2021/01/29 11:27:16;;;;;;;34.30;12.20;;;;;;;;;;5071385;28;20123;-64
2021/01/29 11:30:15;;;;;;;32.00;12.50;;;;;;;;;;5056520;28;20040;-64
2021/01/29 11:33:00;;;;;;;39.05;13.02;;;;;;;;;;5062349;28;20053;-64
2021/01/29 11:35:47;;;;;;;38.83;12.32;;;;;;;;;;5060404;28;20048;-64
2021/01/29 11:38:48;;;;;;;45.58;12.63;;;;;;;;;;5080876;28;20041;-65
2021/01/29 11:41:33;;;;;;;39.70;13.18;;;;;;;;;;5073243;28;20597;-64
2021/01/29 11:44:54;;;;;;;44.88;11.13;;;;;;;;;;5074069;28;20067;-65
2021/01/29 11:47:41;;;;;;;42.85;11.82;;;;;;;;;;5032392;28;20049;-65
2021/01/29 11:50:33;;;;;;;41.17;10.57;;;;;;;;;;5070941;28;20052;-64
2021/01/29 11:53:24;;;;;;;33.38;7.60;;;;;;;;;;5073662;28;20414;-65
2021/01/29 11:56:23;;;;;;;31.52;7.10;;;;;;;;;;5071879;28;20043;-64
2021/01/29 11:59:11;;;;;;;34.90;7.82;;;;;;;;;;5070944;28;20045;-65
2021/01/29 12:01:59;;;;;;;36.60;7.50;;;;;;;;;;5073428;28;20052;-65
2021/01/29 12:04:45;;;;;;;31.38;6.82;;;;;;;;;;5072763;28;20045;-64
2021/01/29 12:07:35;;;;;;;38.05;7.15;;;;;;;;;;5067687;28;20037;-65
2021/01/29 12:10:24;;;;;;;26.33;6.55;;;;;;;;;;5056384;28;20148;-65
2021/01/29 12:13:12;;;;;;;33.13;6.28;;;;;;;;;;5064919;28;20056;-65
2021/01/29 12:15:58;;;;;;;27.33;6.15;;;;;;;;;;5067472;28;20053;-65
2021/01/29 12:18:46;;;;;;;28.77;6.93;;;;;;;;;;5053381;28;20048;-65
2021/01/29 12:21:35;;;;;;;31.08;6.32;;;;;;;;;;5062049;28;20502;-62
2021/01/29 12:24:23;;;;;;;32.13;6.45;;;;;;;;;;5039606;28;20048;-63
2021/01/29 12:27:09;;;;;;;30.92;6.00;;;;;;;;;;5054641;28;20466;-64
2021/01/29 12:30:06;;;;;;;29.88;6.07;;;;;;;;;;5054475;28;20049;-64
2021/01/29 12:33:06;;;;;;;32.58;5.90;;;;;;;;;;5058144;28;20048;-63
2021/01/29 12:35:53;;;;;;;22.55;5.53;;;;;;;;;;5062969;28;20068;-64
2021/01/29 12:38:45;;;;;;;30.80;6.65;;;;;;;;;;5072446;28;20044;-64
2021/01/29 12:41:43;;;;;;;28.90;8.13;;;;;;;;;;5073046;28;20045;-63
2021/01/29 12:44:32;;;;;;;30.83;5.88;;;;;;;;;;5057638;28;20366;-63
2021/01/29 12:47:20;;;;;;;28.98;6.13;;;;;;;;;;5053286;28;20037;-63
2021/01/29 12:50:38;;;;;;;29.17;6.45;;;;;;;;;;5038575;28;20053;-63
2021/01/29 12:53:26;;;;;;;25.05;5.97;;;;;;;;;;5041894;28;20049;-63
2021/01/29 12:56:21;;;;;;;32.08;6.93;;;;;;;;;;5071085;28;20040;-62
2021/01/29 12:59:07;;;;;;;25.10;6.75;;;;;;;;;;5059988;28;20480;-63
2021/01/29 13:02:01;;;;;;;36.00;7.80;;;;;;;;;;5052798;28;20068;-64
2021/01/29 13:04:49;;;;;;;30.40;7.80;;;;;;;;;;5052684;28;20380;-63
2021/01/29 13:07:34;;;;;;;27.52;7.28;;;;;;;;;;5052588;28;20040;-62
2021/01/29 13:10:19;;;;;;;35.22;7.47;;;;;;;;;;5052726;28;20045;-62
2021/01/29 13:13:11;;;;;;;32.40;7.18;;;;;;;;;;5054703;28;20041;-65
2021/01/29 13:16:04;;;;;;;32.45;6.68;;;;;;;;;;5052526;28;20041;-64
2021/01/29 13:18:50;;;;;;;32.97;6.13;;;;;;;;;;5053427;28;20515;-64
2021/01/29 13:21:36;;;;;;;24.67;5.90;;;;;;;;;;5054589;28;20098;-63
2021/01/29 13:24:22;;;;;;;36.53;7.00;;;;;;;;;;5052301;28;20081;-63
2021/01/29 13:27:09;;;;;;;34.53;8.23;;;;;;;;;;5053215;28;20410;-63
2021/01/29 13:29:54;;;;;;;29.45;7.30;;;;;;;;;;5052292;28;20049;-63
2021/01/29 13:32:39;;;;;;;31.05;6.43;;;;;;;;;;5052126;28;20041;-63
2021/01/29 13:35:27;;;;;;;36.28;6.32;;;;;;;;;;5066202;28;20048;-63
2021/01/29 13:38:14;;;;;;;28.77;6.15;;;;;;;;;;5073162;28;20041;-63
2021/01/29 13:41:06;;;;;;;23.90;5.82;;;;;;;;;;5071218;28;20040;-63
2021/01/29 13:43:52;;;;;;;26.38;5.93;;;;;;;;;;5060278;28;20506;-64
2021/01/29 13:46:37;;;;;;;16.33;5.97;;;;;;;;;;5052737;28;20094;-63
2021/01/29 13:49:22;;;;;;;19.45;5.20;;;;;;;;;;5052996;28;20053;-63
2021/01/29 13:52:26;;;;;;;24.42;4.43;;;;;;;;;;5052734;28;20044;-64
2021/01/29 13:55:18;;;;;;;18.25;4.45;;;;;;;;;;5053884;28;20045;-65
2021/01/29 13:58:22;;;;;;;24.83;5.32;;;;;;;;;;5037747;28;20045;-65
2021/01/29 14:01:08;;;;;;;20.23;4.47;;;;;;;;;;5053316;28;20049;-65
2021/01/29 14:04:05;;;;;;;17.58;5.10;;;;;;;;;;5051575;28;20124;-65
2021/01/29 14:06:50;;;;;;;26.33;5.38;;;;;;;;;;5055823;28;20049;-65
2021/01/29 14:09:36;;;;;;;24.90;5.75;;;;;;;;;;5051821;28;20049;-64
2021/01/29 14:12:39;;;;;;;25.45;6.40;;;;;;;;;;5106371;22;20076;-63
2021/01/29 14:15:29;;;;;;;26.73;6.88;;;;;;;;;;5072358;28;20387;-63
2021/01/29 14:18:34;;;;;;;29.05;6.65;;;;;;;;;;5071204;28;20041;-63
2021/01/29 14:21:19;;;;;;;27.60;6.90;;;;;;;;;;5070545;28;20036;-63
2021/01/29 14:24:17;;;;;;;25.95;6.22;;;;;;;;;;5071746;28;20045;-63
2021/01/29 14:27:08;;;;;;;27.52;6.78;;;;;;;;;;5099552;28;20456;-63
2021/01/29 14:30:05;;;;;;;23.15;6.88;;;;;;;;;;5099373;28;20048;-63
2021/01/29 14:33:02;;;;;;;31.33;7.28;;;;;;;;;;5071714;28;20044;-63
2021/01/29 14:36:04;;;;;;;30.77;5.45;;;;;;;;;;5071432;28;20041;-63
2021/01/29 14:38:53;;;;;;;32.53;6.30;;;;;;;;;;5072398;28;20044;-64
2021/01/29 14:41:58;;;;;;;26.27;6.35;;;;;;;;;;5070967;28;20045;-63
2021/01/29 14:44:52;;;;;;;24.15;5.70;;;;;;;;;;5052409;28;20045;-63
2021/01/29 14:47:42;;;;;;;25.73;5.82;;;;;;;;;;5051948;28;20049;-63
2021/01/29 14:50:42;;;;;;;27.23;5.50;;;;;;;;;;5051010;28;20049;-62
2021/01/29 14:53:41;;;;;;;26.48;5.38;;;;;;;;;;5062844;28;20119;-63
2021/01/29 14:56:27;;;;;;;27.65;5.85;;;;;;;;;;5071793;28;20514;-63
2021/01/29 14:59:14;;;;;;;28.00;6.50;;;;;;;;;;5071839;28;20052;-62
2021/01/29 15:02:01;;;;;;;23.52;5.28;;;;;;;;;;5070627;28;20138;-62
2021/01/29 15:04:46;;;;;;;20.00;5.47;;;;;;;;;;5070564;28;20115;-62
2021/01/29 15:07:32;;;;;;;18.38;4.78;;;;;;;;;;5099183;28;20044;-62
2021/01/29 15:10:19;;;;;;;25.27;5.78;;;;;;;;;;5099213;28;20052;-62
2021/01/29 15:13:11;;;;;;;19.33;4.90;;;;;;;;;;5100360;28;20502;-62
2021/01/29 15:15:57;;;;;;;17.65;4.63;;;;;;;;;;5075898;28;20049;-62
2021/01/29 15:18:42;;;;;;;21.02;5.10;;;;;;;;;;5075784;28;20036;-63
2021/01/29 15:21:30;;;;;;;20.13;4.95;;;;;;;;;;5074426;28;20048;-63
2021/01/29 15:24:15;;;;;;;19.50;4.60;;;;;;;;;;5075475;28;20036;-63
2021/01/29 15:27:02;;;;;;;30.58;5.72;;;;;;;;;;5102936;28;20391;-63
2021/01/29 15:29:48;;;;;;;19.17;4.47;;;;;;;;;;5075390;28;20041;-63
2021/01/29 15:32:37;;;;;;;22.70;5.65;;;;;;;;;;5075364;28;20041;-63
2021/01/29 15:35:26;;;;;;;20.88;4.38;;;;;;;;;;5075593;28;20045;-63
2021/01/29 15:38:12;;;;;;;18.63;4.40;;;;;;;;;;5075736;28;20045;-63
2021/01/29 15:40:57;;;;;;;21.10;4.70;;;;;;;;;;5074006;28;20044;-63
2021/01/29 15:43:42;;;;;;;16.10;3.50;;;;;;;;;;5075431;28;20127;-63
2021/01/29 15:46:43;;;;;;;17.73;3.78;;;;;;;;;;5061423;28;20414;-63
2021/01/29 15:49:29;;;;;;;16.30;4.93;;;;;;;;;;5073245;28;20086;-63
2021/01/29 15:52:21;;;;;;;20.08;4.60;;;;;;;;;;5072827;28;20116;-63
2021/01/29 15:55:19;;;;;;;19.77;5.10;;;;;;;;;;5072863;28;20052;-64
2021/01/29 15:58:04;;;;;;;22.75;4.03;;;;;;;;;;5055008;28;20391;-63
2021/01/29 16:00:50;;;;;;;16.67;4.05;;;;;;;;;;5069831;28;20475;-63
2021/01/29 16:03:40;;;;;;;22.20;4.15;;;;;;;;;;5072334;28;20064;-66
2021/01/29 16:06:38;;;;;;;22.77;4.22;;;;;;;;;;5071456;28;20056;-65
2021/01/29 16:09:28;;;;;;;23.83;4.82;;;;;;;;;;5065812;28;20057;-66
2021/01/29 16:12:25;;;;;;;18.85;4.30;;;;;;;;;;5062424;28;20052;-66
2021/01/29 16:15:10;;;;;;;24.65;5.07;;;;;;;;;;5072630;28;20406;-65
2021/01/29 16:18:02;;;;;;;25.83;5.68;;;;;;;;;;5071893;28;20067;-66
2021/01/29 16:20:48;;;;;;;25.33;5.88;;;;;;;;;;5066492;28;20074;-66
2021/01/29 16:23:34;;;;;;;28.50;5.72;;;;;;;;;;5059907;28;20056;-66
2021/01/29 16:26:21;;;;;;;20.00;5.70;;;;;;;;;;5071946;28;20052;-66
2021/01/29 16:29:08;;;;;;;25.73;7.15;;;;;;;;;;5072754;28;20045;-66
2021/01/29 16:31:58;;;;;;;29.40;6.93;;;;;;;;;;5071535;28;20160;-65
2021/01/29 16:34:43;;;;;;;29.05;6.85;;;;;;;;;;5070579;28;20045;-66
2021/01/29 16:37:29;;;;;;;33.22;7.53;;;;;;;;;;5070637;28;20045;-66
2021/01/29 16:40:20;;;;;;;18.65;5.43;;;;;;;;;;5061764;28;20116;-66
2021/01/29 16:43:06;;;;;;;23.65;7.00;;;;;;;;;;5071404;28;20041;-66
2021/01/29 16:45:53;;;;;;;19.85;7.15;;;;;;;;;;5071177;28;20057;-66
2021/01/29 16:48:38;;;;;;;26.00;9.05;;;;;;;;;;5098823;28;20071;-66
2021/01/29 16:51:23;;;;;;;21.95;8.32;;;;;;;;;;5071801;28;20049;-66
2021/01/29 16:54:09;;;;;;;30.88;9.82;;;;;;;;;;5072441;28;20055;-65
2021/01/29 16:56:59;;;;;;;19.83;7.20;;;;;;;;;;5060295;28;20074;-66
2021/01/29 16:59:45;;;;;;;23.65;7.60;;;;;;;;;;5084030;28;20040;-65